Archival Weather

Republic

Farmingdale, New York (KFRG)

Report from: Saturday, February 24, 2024 12:53 PM EST
Current time: Friday, June 21, 2024 4:15 AM EDT

Current weather – Weather history – Daily summaries
Weather forecast

Temperature5.6°C (42.1°F)
Wind chill2.0°C (35.6°F)
Dew point-2.8°C (27.0°F)
Winds 10 kts (5.1 m/s, 11.5 mph) North-Northwest (330°)
Wind gusts 16 kts (8.2 m/s, 18.4 mph)
Visibility10 mi. (16.1 km)
Clouds Scattered clouds 3,800 ft. (1,158 m)
Altimeter29.67 in.Hg (1005 mB)
Relative humidity55 %
Density altitude-764 ft. (-233 m)
Sea-level pressure100.5 kPa (1005 mB, 29.67 in.Hg)
Max temp last 6 hours6.7°C (44.1°F)
Min temp last 6 hours3.9°C (39.0°F)
Remarks Automated weather observing station without precipitation discriminator
Pressure rising more slowly
Flight conditions Visual Meteorological Conditions
Raw dataKFRG 241753Z 33010G16KT 10SM SCT038 06/M03 A2967 RMK AO1 SLP047 T00561028 10067 20039 51009
An error has occurred. This application may no longer respond until reloaded. Reload 🗙